Time;durP1;ratioP1;P1;durP2;ratioP2;P2;SDS_P1;SDS_P2;PMS_P1;PMS_P2;Temp;Humidity;BMP_temperature;BMP_pressure;BME280_temperature;BME280_humidity;BME280_pressure;Samples;Min_cycle;Max_cycle;Signal;HPM_P1;HPM_P2
2023/10/14 00:02:08;;;;;;;19.30;11.00;;;;;;;9.12;71.79;99681.20;107206;1262;73959;-37
2023/10/14 00:04:36;;;;;;;16.70;11.10;;;;;;;9.08;71.66;99676.05;107230;1257;67607;-37
2023/10/14 00:07:08;;;;;;;18.90;11.00;;;;;;;9.04;71.67;99669.67;107205;1257;72683;-38
2023/10/14 00:09:43;;;;;;;18.60;11.20;;;;;;;9.01;71.62;99670.65;107180;1263;60546;-37
2023/10/14 00:12:14;;;;;;;21.20;11.50;;;;;;;8.96;71.49;99666.71;107220;1257;60320;-37
2023/10/14 00:14:43;;;;;;;19.10;10.80;;;;;;;8.93;71.62;99662.81;107204;1257;73841;-37
2023/10/14 00:17:17;;;;;;;17.40;10.70;;;;;;;8.94;71.55;99660.95;107277;1257;67128;-37
2023/10/14 00:19:49;;;;;;;15.90;11.60;;;;;;;8.98;71.50;99663.29;107194;1258;72694;-37
2023/10/14 00:22:20;;;;;;;19.50;11.20;;;;;;;8.97;71.51;99660.65;107248;1257;60600;-37
2023/10/14 00:24:48;;;;;;;18.20;11.30;;;;;;;8.96;71.70;99658.27;107212;1257;60020;-37
2023/10/14 00:27:17;;;;;;;19.00;11.10;;;;;;;8.95;71.78;99661.90;107215;1257;73846;-37
2023/10/14 00:29:44;;;;;;;18.90;11.40;;;;;;;8.94;71.93;99660.39;107217;1257;68305;-37
2023/10/14 00:32:12;;;;;;;16.10;10.90;;;;;;;8.93;72.00;99664.44;107031;1257;72709;-37
2023/10/14 00:34:39;;;;;;;14.80;10.20;;;;;;;8.96;71.86;99661.44;107191;1263;61709;-38
2023/10/14 00:37:08;;;;;;;16.70;10.40;;;;;;;9.00;71.72;99656.09;107238;1260;60302;-37
2023/10/14 00:39:36;;;;;;;15.70;10.30;;;;;;;9.01;71.82;99646.39;107178;1257;73897;-37
2023/10/14 00:42:07;;;;;;;15.80;10.60;;;;;;;9.01;71.73;99644.38;107252;1262;67743;-37
2023/10/14 00:44:38;;;;;;;17.50;11.00;;;;;;;9.01;71.74;99641.36;107271;1257;71786;-37
2023/10/14 00:47:08;;;;;;;18.20;11.00;;;;;;;9.01;71.78;99635.10;107236;1263;60347;-38
2023/10/14 00:49:42;;;;;;;16.30;11.10;;;;;;;8.99;71.84;99627.95;107151;1258;60037;-37
2023/10/14 00:52:15;;;;;;;21.10;10.80;;;;;;;8.97;71.85;99620.46;107334;1258;73858;-38
2023/10/14 00:59:47;;;;;;;13.60;10.50;;;;;;;9.12;71.67;99603.68;107272;1263;60283;-37
2023/10/14 01:02:19;;;;;;;13.60;10.00;;;;;;;9.12;71.62;99595.02;107255;1256;60303;-37
2023/10/14 01:04:53;;;;;;;16.80;11.10;;;;;;;9.12;71.60;99594.01;107280;1257;73886;-38
2023/10/14 01:07:21;;;;;;;15.60;9.80;;;;;;;9.11;71.60;99587.50;107275;1258;67569;-38
2023/10/14 01:09:52;;;;;;;18.30;10.50;;;;;;;9.11;71.60;99590.73;107241;1261;71484;-37
2023/10/14 01:12:29;;;;;;;17.80;10.60;;;;;;;9.09;71.37;99592.09;107018;1258;61706;-37
2023/10/14 01:14:59;;;;;;;16.20;9.40;;;;;;;9.13;71.22;99590.56;107240;1257;60033;-37
2023/10/14 01:17:32;;;;;;;17.10;10.50;;;;;;;9.18;71.37;99592.55;107233;1263;73874;-37
2023/10/14 01:20:25;;;;;;;15.10;10.10;;;;;;;9.18;71.70;99596.33;107270;1257;67547;-38
2023/10/14 01:22:57;;;;;;;18.80;10.60;;;;;;;9.20;71.92;99596.52;107247;1257;72655;-38
2023/10/14 01:25:32;;;;;;;17.30;10.10;;;;;;;9.22;72.05;99593.98;107231;1257;60539;-38
2023/10/14 01:28:09;;;;;;;16.50;9.60;;;;;;;9.24;72.15;99587.69;107320;1262;60341;-38
2023/10/14 01:30:42;;;;;;;14.60;9.50;;;;;;;9.25;72.26;99584.46;106991;1258;73861;-38
2023/10/14 01:33:16;;;;;;;11.40;8.20;;;;;;;9.31;72.27;99586.43;107160;1262;68051;-38
2023/10/14 01:35:51;;;;;;;14.60;9.60;;;;;;;9.40;72.14;99587.73;107270;1257;72863;-38
2023/10/14 01:38:19;;;;;;;13.90;9.30;;;;;;;9.43;72.20;99581.55;107254;1257;60388;-38
2023/10/14 01:40:50;;;;;;;15.20;8.80;;;;;;;9.44;72.26;99575.27;107237;1257;60157;-38
2023/10/14 01:43:18;;;;;;;15.40;9.20;;;;;;;9.45;72.17;99570.17;107282;1257;73844;-38
2023/10/14 01:48:25;;;;;;;13.40;8.60;;;;;;;9.44;72.20;99565.59;107114;1257;72701;-37
2023/10/14 01:50:56;;;;;;;;;;;;;;;9.49;72.11;99558.30;107291;1262;61682;-38
2023/10/14 01:53:28;;;;;;;12.60;8.10;;;;;;;9.54;71.97;99559.90;107223;1257;60427;-38
2023/10/14 01:55:58;;;;;;;13.70;8.30;;;;;;;9.53;72.17;99560.27;107285;1257;73891;-38
2023/10/14 01:58:32;;;;;;;12.40;8.70;;;;;;;9.54;72.35;99560.73;107348;1255;66738;-38
2023/10/14 02:03:44;;;;;;;15.70;9.20;;;;;;;9.53;72.46;99554.92;107296;1255;60328;-38
2023/10/14 02:06:16;;;;;;;12.20;8.50;;;;;;;9.54;72.51;99557.10;107542;1254;60539;-38
2023/10/14 02:08:52;;;;;;;11.30;7.90;;;;;;;9.58;72.52;99559.15;107369;1254;73866;-37
2023/10/14 02:11:21;;;;;;;14.50;8.10;;;;;;;9.64;72.35;99562.23;107395;1254;66751;-36
2023/10/14 02:13:52;;;;;;;13.10;8.20;;;;;;;9.63;72.42;99567.61;107461;1257;71406;-37
2023/10/14 02:16:32;;;;;;;11.80;8.20;;;;;;;9.58;72.63;99569.44;107482;1260;60535;-37
2023/10/14 02:19:17;;;;;;;12.60;9.30;;;;;;;9.57;72.66;99569.12;107339;1260;60024;-37
2023/10/14 02:24:25;;;;;;;12.20;7.70;;;;;;;9.52;72.76;99560.39;104324;1289;600880;-36
2023/10/14 02:26:53;;;;;;;12.30;8.20;;;;;;;9.50;72.62;99558.32;106650;1267;60445;-37
2023/10/14 02:29:23;;;;;;;14.40;7.40;;;;;;;9.56;72.62;99553.83;106699;1264;60092;-37
2023/10/14 02:31:51;;;;;;;12.20;8.00;;;;;;;9.59;72.75;99555.54;106737;1263;72266;-37
2023/10/14 02:34:19;;;;;;;12.40;8.40;;;;;;;9.62;73.00;99550.34;106680;1263;67655;-37
2023/10/14 02:36:49;;;;;;;11.00;8.10;;;;;;;9.64;72.92;99543.83;106709;1264;72650;-37
2023/10/14 02:39:25;;;;;;;13.80;9.00;;;;;;;9.67;72.89;99546.69;106724;1264;59244;-37
2023/10/14 02:42:06;;;;;;;14.10;8.90;;;;;;;9.67;72.77;99539.64;106850;1267;59300;-37
2023/10/14 02:44:46;;;;;;;10.80;7.80;;;;;;;9.72;72.55;99535.90;106845;1261;71079;-37
2023/10/14 02:47:14;;;;;;;;;;;;;;;9.76;72.41;99536.23;106902;1267;67599;-37
2023/10/14 02:49:42;;;;;;;13.20;8.40;;;;;;;9.76;72.50;99537.25;106863;1261;72704;-37
2023/10/14 02:52:11;;;;;;;15.20;8.50;;;;;;;9.75;72.65;99532.14;106885;1264;60295;-37
2023/10/14 02:54:44;;;;;;;11.20;7.70;;;;;;;9.76;72.60;99529.58;106897;1261;60036;-37
2023/10/14 02:57:26;;;;;;;10.90;8.70;;;;;;;9.75;72.51;99516.79;106863;1267;73062;-37
2023/10/14 02:59:57;;;;;;;12.10;8.90;;;;;;;9.72;72.50;99512.48;106802;1264;67630;-37
2023/10/14 03:02:26;;;;;;;11.70;8.40;;;;;;;9.76;72.43;99507.00;106809;1261;73211;-37
2023/10/14 03:05:51;;;;;;;13.60;9.10;;;;;;;9.80;72.30;99501.08;106799;1263;59624;-37
2023/10/14 03:07:48;;;;;;;13.30;9.40;;;;;;;9.80;72.03;99497.97;106840;1261;59685;-37
2023/10/14 03:12:48;;;;;;;15.70;10.20;;;;;;;9.70;72.28;99501.51;106827;1261;67589;-37
2023/10/14 03:15:21;;;;;;;14.60;9.70;;;;;;;9.68;72.35;99496.15;106843;1263;72676;-37
2023/10/14 03:17:55;;;;;;;17.20;10.00;;;;;;;9.66;72.36;99490.04;106776;1263;61675;-38
2023/10/14 03:20:34;;;;;;;13.00;9.80;;;;;;;9.69;72.25;99486.34;106872;1263;60012;-37
2023/10/14 03:23:12;;;;;;;12.60;9.90;;;;;;;9.74;72.26;99486.68;106818;1264;71528;-37
2023/10/14 03:25:40;;;;;;;15.40;9.20;;;;;;;9.75;72.27;99484.77;106785;1264;66682;-37
2023/10/14 03:31:08;;;;;;;12.70;9.30;;;;;;;9.75;72.38;99486.63;106816;1264;59824;-37
2023/10/14 03:33:45;;;;;;;16.50;9.80;;;;;;;9.73;72.48;99486.58;106750;1264;59686;-37
2023/10/14 03:36:15;;;;;;;14.40;9.30;;;;;;;9.67;72.50;99484.92;106812;1264;73070;-37
2023/10/14 03:38:46;;;;;;;11.50;9.00;;;;;;;9.70;72.46;99487.67;106764;1263;67566;-37
2023/10/14 03:41:19;;;;;;;14.30;8.90;;;;;;;9.72;72.53;99485.79;106816;1264;72741;-37
2023/10/14 03:46:24;;;;;;;14.20;9.50;;;;;;;9.75;72.77;99488.09;106713;1264;60473;-37
2023/10/14 03:48:54;;;;;;;14.10;8.90;;;;;;;9.75;72.71;99491.43;106785;1264;73066;-37
2023/10/14 03:51:27;;;;;;;13.00;9.50;;;;;;;9.75;72.77;99489.50;106744;1265;67583;-37
2023/10/14 03:53:55;;;;;;;13.20;9.40;;;;;;;9.74;72.67;99490.40;106826;1263;72682;-37
2023/10/14 03:56:27;;;;;;;12.30;9.10;;;;;;;9.78;72.65;99487.80;106722;1266;60456;-37
2023/10/14 03:58:57;;;;;;;12.10;9.40;;;;;;;9.85;72.53;99483.94;106825;1264;60745;-37
2023/10/14 04:02:19;;;;;;;12.10;9.40;;;;;;;9.86;72.59;99479.48;106806;1264;73101;-37
2023/10/14 04:04:24;;;;;;;14.20;9.60;;;;;;;9.86;72.62;99479.33;106671;1268;66331;-37
2023/10/14 04:09:44;;;;;;;13.90;10.40;;;;;;;9.82;72.69;99459.27;106714;1264;60147;-37
2023/10/14 04:12:30;;;;;;;14.20;10.50;;;;;;;9.79;72.84;99460.04;106757;1264;60079;-37
2023/10/14 04:15:06;;;;;;;15.90;9.90;;;;;;;9.81;72.90;99462.49;106769;1263;73053;-37
2023/10/14 04:17:33;;;;;;;13.60;10.80;;;;;;;9.81;73.15;99460.86;106756;1265;67595;-37
2023/10/14 04:22:39;;;;;;;19.20;12.20;;;;;;;9.78;73.54;99453.83;106793;1263;60086;-38
2023/10/14 04:35:36;;;;;;;13.60;10.60;;;;;;;9.79;74.00;99441.70;106816;1264;59518;-37
2023/10/14 04:38:17;;;;;;;15.10;11.80;;;;;;;9.77;74.27;99438.73;106810;1263;59304;-37
2023/10/14 04:40:53;;;;;;;16.60;11.40;;;;;;;9.74;74.65;99437.48;106798;1264;72102;-37
2023/10/14 04:45:55;;;;;;;17.80;11.00;;;;;;;9.73;75.21;99440.24;106809;1264;72747;-37
2023/10/14 04:51:18;;;;;;;15.00;10.30;;;;;;;9.88;75.26;99442.39;106628;1264;60060;-38
2023/10/14 04:53:49;;;;;;;;;;;;;;;9.88;75.49;99434.50;106820;1263;73040;-37
2023/10/14 04:56:29;;;;;;;15.80;11.40;;;;;;;9.88;75.92;99437.66;106760;1263;67557;-38
2023/10/14 04:58:57;;;;;;;18.30;12.00;;;;;;;9.85;76.14;99433.51;106767;1265;72755;-38
2023/10/14 05:01:25;;;;;;;17.60;11.20;;;;;;;9.86;76.37;99428.73;106791;1264;61740;-37
2023/10/14 05:03:57;;;;;;;15.50;10.50;;;;;;;9.95;76.35;99422.42;106793;1264;60015;-36
2023/10/14 05:06:39;;;;;;;15.70;10.40;;;;;;;10.03;76.43;99423.45;106751;1268;73074;-37
2023/10/14 05:09:25;;;;;;;18.70;12.40;;;;;;;10.08;76.69;99426.02;106755;1264;66611;-37
2023/10/14 05:11:57;;;;;;;20.40;12.00;;;;;;;10.10;76.97;99424.37;106730;1264;73089;-37
2023/10/14 05:14:34;;;;;;;17.50;12.80;;;;;;;10.13;77.21;99426.66;106832;1266;60054;-37
2023/10/14 05:17:14;;;;;;;15.60;11.40;;;;;;;10.12;77.31;99420.23;107016;1260;59548;-37
2023/10/14 05:19:43;;;;;;;17.50;11.50;;;;;;;10.19;77.44;99417.55;106905;1260;72087;-37
2023/10/14 05:22:23;;;;;;;16.20;12.30;;;;;;;10.27;77.50;99418.41;107033;1260;66652;-37
2023/10/14 05:24:54;;;;;;;15.50;12.00;;;;;;;10.31;77.85;99418.95;107005;1261;72691;-37
2023/10/14 05:27:22;;;;;;;16.90;13.30;;;;;;;10.33;78.14;99428.21;107011;1264;59595;-37
2023/10/14 05:29:52;;;;;;;17.50;12.40;;;;;;;10.34;78.72;99426.92;106985;1260;60065;-37
2023/10/14 05:32:24;;;;;;;16.80;11.70;;;;;;;10.42;78.77;99425.39;106987;1260;72846;-36
2023/10/14 05:34:53;;;;;;;19.60;13.00;;;;;;;10.52;78.98;99421.48;106992;1260;67912;-37
2023/10/14 05:37:22;;;;;;;17.10;13.10;;;;;;;10.56;79.54;99423.81;107080;1260;72708;-37
2023/10/14 05:39:54;;;;;;;18.80;13.70;;;;;;;10.59;80.03;99423.09;106952;1265;60088;-37
2023/10/14 05:42:22;;;;;;;18.00;12.70;;;;;;;10.63;80.28;99421.94;106985;1259;59224;-36
2023/10/14 05:45:01;;;;;;;16.70;11.70;;;;;;;10.75;80.63;99422.17;106964;1260;72523;-37
2023/10/14 05:47:29;;;;;;;20.00;12.80;;;;;;;10.89;80.92;99421.11;107033;1260;67355;-37
2023/10/14 05:49:56;;;;;;;15.70;12.40;;;;;;;10.98;81.52;99419.56;106970;1260;72093;-37
2023/10/14 05:52:24;;;;;;;20.10;13.70;;;;;;;11.06;81.96;99417.06;106983;1262;60133;-37
2023/10/14 05:54:53;;;;;;;16.70;12.30;;;;;;;11.15;82.49;99416.62;106952;1260;60111;-37
2023/10/14 05:57:22;;;;;;;16.10;11.90;;;;;;;11.29;82.52;99410.96;106957;1260;73384;-37
2023/10/14 05:59:50;;;;;;;20.00;12.90;;;;;;;11.44;82.31;99410.05;106995;1259;67948;-37
2023/10/14 06:02:19;;;;;;;16.80;12.50;;;;;;;11.51;81.95;99405.96;106969;1260;71405;-37
2023/10/14 06:04:50;;;;;;;18.70;14.60;;;;;;;11.54;81.82;99405.02;106996;1260;60072;-37
2023/10/14 06:07:18;;;;;;;17.50;13.00;;;;;;;11.57;81.65;99411.34;106982;1260;59498;-37
2023/10/14 06:09:46;;;;;;;14.20;11.90;;;;;;;11.66;81.28;99413.96;107041;1260;73079;-36
2023/10/14 06:12:16;;;;;;;18.10;11.80;;;;;;;11.73;80.99;99417.58;107002;1260;67609;-37
2023/10/14 06:14:45;;;;;;;16.80;12.40;;;;;;;11.77;80.85;99419.11;107074;1260;72694;-36
2023/10/14 06:17:14;;;;;;;20.30;14.10;;;;;;;11.78;80.94;99422.77;106984;1260;59580;-37
2023/10/14 06:19:42;;;;;;;16.40;13.20;;;;;;;11.78;80.96;99421.08;106963;1260;60014;-37
2023/10/14 06:22:14;;;;;;;18.80;13.20;;;;;;;11.83;80.85;99417.50;107014;1260;73164;-37
2023/10/14 06:24:42;;;;;;;16.40;13.00;;;;;;;11.88;80.79;99414.77;107085;1260;68175;-37
2023/10/14 06:27:20;;;;;;;17.00;14.00;;;;;;;11.90;80.86;99417.92;106985;1261;72683;-37
2023/10/14 06:29:50;;;;;;;18.80;14.10;;;;;;;11.93;81.30;99418.80;107240;1260;59638;-37
2023/10/14 06:32:18;;;;;;;18.00;13.40;;;;;;;11.97;81.72;99419.73;107297;1256;60230;-37
2023/10/14 06:34:57;;;;;;;19.10;12.60;;;;;;;12.09;82.09;99419.66;107273;1257;72170;-37
2023/10/14 06:37:27;;;;;;;19.80;13.30;;;;;;;12.25;82.42;99416.20;107251;1256;68020;-37
2023/10/14 06:39:56;;;;;;;19.10;13.90;;;;;;;12.35;82.99;99419.06;107259;1257;72698;-37
2023/10/14 06:42:26;;;;;;;17.40;13.20;;;;;;;12.44;83.34;99419.80;107256;1256;60396;-36
2023/10/14 06:44:55;;;;;;;;;;;;;;;12.58;83.35;99422.84;107302;1256;60506;-37
2023/10/14 06:47:23;;;;;;;18.70;12.90;;;;;;;12.76;83.13;99416.74;107240;1260;73977;-37
2023/10/14 06:49:51;;;;;;;18.00;13.60;;;;;;;12.89;82.80;99409.11;107241;1257;68090;-37
2023/10/14 06:52:18;;;;;;;16.10;13.20;;;;;;;12.99;82.60;99408.52;107234;1260;72462;-37
2023/10/14 06:54:47;;;;;;;17.70;12.00;;;;;;;13.10;82.43;99411.67;107255;1259;61096;-37
2023/10/14 06:57:16;;;;;;;16.20;12.10;;;;;;;13.24;82.15;99406.99;107232;1256;61032;-36
2023/10/14 06:59:45;;;;;;;18.20;12.40;;;;;;;13.41;81.77;99405.81;107225;1260;73986;-37
2023/10/14 07:02:13;;;;;;;23.80;13.50;;;;;;;13.53;81.48;99404.27;107303;1257;68256;-36
2023/10/14 07:04:41;;;;;;;18.50;13.20;;;;;;;13.62;81.07;99403.95;107249;1257;72754;-37
2023/10/14 07:07:09;;;;;;;16.20;12.50;;;;;;;13.72;81.00;99402.94;107259;1257;61760;-36
2023/10/14 07:09:39;;;;;;;16.70;12.40;;;;;;;13.87;80.47;99395.01;107239;1256;60527;-37
2023/10/14 07:12:13;;;;;;;14.10;11.50;;;;;;;14.02;79.93;99394.86;107258;1256;73013;-37
2023/10/14 07:14:44;;;;;;;14.40;11.70;;;;;;;14.13;79.67;99391.73;107255;1257;66423;-37
2023/10/14 07:17:17;;;;;;;19.00;11.30;;;;;;;14.22;79.60;99389.52;107266;1256;72762;-37
2023/10/14 07:19:46;;;;;;;19.80;11.00;;;;;;;14.39;79.29;99389.45;107239;1257;61732;-37
2023/10/14 07:22:20;;;;;;;18.70;12.40;;;;;;;14.55;78.74;99390.54;107301;1255;62340;-37
2023/10/14 07:24:50;;;;;;;17.00;11.90;;;;;;;14.69;78.24;99386.52;107242;1260;73982;-37
2023/10/14 07:27:20;;;;;;;15.60;11.40;;;;;;;14.78;78.26;99385.61;107303;1256;66319;-36
2023/10/14 07:29:48;;;;;;;;;;;;;;;14.91;77.85;99387.03;107281;1260;72283;-36
2023/10/14 07:32:19;;;;;;;14.60;11.20;;;;;;;15.08;77.63;99382.45;107213;1256;61255;-37
2023/10/14 07:34:50;;;;;;;14.10;10.40;;;;;;;15.20;76.87;99379.11;107281;1256;60371;-37
2023/10/14 07:37:20;;;;;;;17.60;11.30;;;;;;;15.28;76.86;99380.92;107256;1256;73827;-37
2023/10/14 07:39:52;;;;;;;20.90;10.80;;;;;;;15.38;76.79;99371.30;107248;1256;67327;-37
2023/10/14 07:42:21;;;;;;;15.50;11.00;;;;;;;15.54;76.01;99370.54;107242;1257;72774;-36
2023/10/14 07:44:51;;;;;;;13.20;10.50;;;;;;;15.69;75.68;99363.73;107268;1256;60388;-37
2023/10/14 07:47:21;;;;;;;16.90;11.30;;;;;;;15.77;75.32;99364.34;107268;1256;60558;-38
2023/10/14 07:49:50;;;;;;;21.90;11.60;;;;;;;15.86;74.58;99358.61;107286;1257;72653;-37
2023/10/14 07:52:20;;;;;;;17.10;10.60;;;;;;;15.95;74.00;99356.95;107280;1256;67783;-38
2023/10/14 07:54:51;;;;;;;;;;;;;;;16.10;73.88;99350.11;107639;1253;73138;-37
2023/10/14 07:57:19;;;;;;;14.90;10.50;;;;;;;16.22;73.73;99344.27;107524;1257;60377;-37
2023/10/14 07:59:50;;;;;;;17.20;10.30;;;;;;;16.31;73.19;99341.19;107533;1251;60293;-38
2023/10/14 08:02:18;;;;;;;12.40;10.10;;;;;;;16.39;72.10;99337.55;107519;1251;73897;-38
2023/10/14 08:04:46;;;;;;;12.50;9.50;;;;;;;16.49;71.77;99342.66;107521;1251;66608;-38
2023/10/14 08:07:14;;;;;;;13.70;10.10;;;;;;;16.62;71.35;99338.48;107520;1253;72709;-37
2023/10/14 08:09:43;;;;;;;14.60;9.50;;;;;;;16.73;71.05;99340.77;107582;1253;60531;-37
2023/10/14 08:12:10;;;;;;;13.50;9.60;;;;;;;16.81;70.61;99337.65;107638;1253;60273;-38
2023/10/14 08:14:38;;;;;;;17.10;10.40;;;;;;;16.88;70.16;99330.24;107534;1253;73872;-38
2023/10/14 08:17:11;;;;;;;14.80;9.60;;;;;;;16.96;70.03;99329.17;107534;1253;65991;-38
2023/10/14 08:19:39;;;;;;;15.00;9.20;;;;;;;17.11;69.81;99332.19;107560;1253;72764;-37
2023/10/14 08:22:08;;;;;;;16.80;10.30;;;;;;;17.23;69.15;99332.40;107546;1252;60455;-38
2023/10/14 08:24:38;;;;;;;13.70;10.30;;;;;;;17.32;68.09;99328.17;107521;1253;60493;-38
2023/10/14 08:27:05;;;;;;;19.50;10.60;;;;;;;17.39;68.12;99325.92;107525;1253;73884;-37
2023/10/14 08:29:33;;;;;;;13.60;10.00;;;;;;;17.46;68.07;99319.52;107525;1257;67899;-37
2023/10/14 08:32:00;;;;;;;14.60;9.40;;;;;;;17.56;67.96;99313.23;107518;1253;71365;-38
2023/10/14 08:34:28;;;;;;;12.40;9.50;;;;;;;17.70;67.65;99311.94;107504;1257;60426;-37
2023/10/14 08:36:56;;;;;;;15.70;10.10;;;;;;;17.84;67.25;99311.72;107606;1253;60371;-37
2023/10/14 08:39:24;;;;;;;15.90;10.00;;;;;;;17.94;66.38;99305.95;107586;1254;73874;-37
2023/10/14 08:41:54;;;;;;;17.00;9.90;;;;;;;18.03;66.15;99302.01;107629;1256;67575;-38
2023/10/14 08:44:24;;;;;;;13.10;10.30;;;;;;;18.12;65.87;99300.64;107401;1253;72722;-38
2023/10/14 08:46:52;;;;;;;13.90;10.00;;;;;;;18.21;65.45;99300.23;107480;1253;61743;-38
2023/10/14 08:49:23;;;;;;;14.00;8.90;;;;;;;18.33;65.51;99301.84;107610;1253;60514;-37
2023/10/14 08:51:52;;;;;;;18.80;10.00;;;;;;;18.44;64.51;99297.30;107699;1252;73834;-38
2023/10/14 08:54:23;;;;;;;18.80;9.30;;;;;;;18.51;64.03;99295.02;107612;1253;67986;-38
2023/10/14 08:56:52;;;;;;;18.20;9.70;;;;;;;18.58;63.32;99292.04;107506;1255;71811;-37
2023/10/14 08:59:21;;;;;;;16.50;9.80;;;;;;;18.66;62.92;99284.70;107627;1253;60309;-37
2023/10/14 09:01:53;;;;;;;14.10;9.80;;;;;;;18.74;62.84;99281.20;107560;1253;60499;-37
2023/10/14 09:04:28;;;;;;;14.80;9.80;;;;;;;18.81;62.75;99265.73;107547;1253;73873;-37
2023/10/14 09:07:03;;;;;;;14.10;9.30;;;;;;;18.85;62.30;99272.95;107538;1257;68060;-38
2023/10/14 09:09:32;;;;;;;13.10;7.90;;;;;;;18.86;61.64;99267.84;107623;1253;72682;-38
2023/10/14 09:12:11;;;;;;;15.30;8.50;;;;;;;18.91;61.60;99267.61;107465;1258;60265;-37
2023/10/14 09:14:40;;;;;;;13.70;8.70;;;;;;;18.99;62.00;99262.84;107565;1253;59651;-38
2023/10/14 09:17:10;;;;;;;14.80;8.80;;;;;;;19.10;61.82;99265.33;107496;1253;73975;-37
2023/10/14 09:19:44;;;;;;;14.90;7.90;;;;;;;19.26;61.05;99266.84;107536;1253;67596;-37
2023/10/14 09:22:25;;;;;;;11.90;8.60;;;;;;;19.42;59.59;99275.12;107534;1253;71071;-37
2023/10/14 09:24:58;;;;;;;14.90;8.50;;;;;;;19.55;58.80;99268.45;107495;1253;60514;-38
2023/10/14 09:27:30;;;;;;;13.60;8.60;;;;;;;19.66;58.68;99269.52;107606;1253;60488;-38
2023/10/14 09:29:58;;;;;;;13.70;8.00;;;;;;;19.78;58.62;99261.10;107454;1253;73903;-38
2023/10/14 09:32:27;;;;;;;11.50;7.60;;;;;;;19.91;58.23;99253.45;107436;1253;67602;-38
2023/10/14 09:34:55;;;;;;;9.70;7.40;;;;;;;20.05;56.47;99248.20;107405;1253;72641;-38
2023/10/14 09:37:23;;;;;;;13.30;7.90;;;;;;;20.13;55.99;99242.51;107438;1254;60171;-38
2023/10/14 09:39:57;;;;;;;12.40;8.10;;;;;;;20.19;56.29;99237.83;107448;1253;60452;-38
2023/10/14 09:42:30;;;;;;;13.10;7.90;;;;;;;20.27;56.25;99225.39;107332;1253;73897;-37
2023/10/14 09:44:58;;;;;;;12.70;8.10;;;;;;;20.35;56.49;99219.25;107447;1253;69047;-38
2023/10/14 09:47:25;;;;;;;14.80;7.60;;;;;;;20.50;56.24;99220.39;107294;1255;72695;-38
2023/10/14 09:49:53;;;;;;;15.60;7.70;;;;;;;20.63;55.70;99220.56;107382;1254;60066;-38
2023/10/14 09:52:20;;;;;;;13.00;8.00;;;;;;;20.74;54.67;99226.02;107318;1253;60039;-38
2023/10/14 09:54:49;;;;;;;15.40;7.80;;;;;;;20.84;54.44;99220.98;107457;1253;73840;-38
2023/10/14 09:57:18;;;;;;;13.30;7.50;;;;;;;20.92;54.32;99215.50;107387;1253;67554;-38
2023/10/14 09:59:46;;;;;;;13.10;7.70;;;;;;;21.04;53.90;99213.15;107390;1253;72687;-38
2023/10/14 10:02:15;;;;;;;12.90;8.00;;;;;;;21.14;53.09;99209.11;107476;1253;60374;-38
2023/10/14 10:04:45;;;;;;;12.40;7.00;;;;;;;21.24;52.88;99198.77;107471;1253;60515;-38
2023/10/14 10:07:30;;;;;;;12.40;7.80;;;;;;;21.36;52.69;99197.70;107425;1253;73063;-38
2023/10/14 10:10:13;;;;;;;11.80;7.60;;;;;;;21.39;52.40;99189.16;107434;1253;69474;-38
2023/10/14 10:12:42;;;;;;;15.50;8.20;;;;;;;21.40;52.36;99193.71;107391;1258;73147;-37
2023/10/14 10:15:09;;;;;;;16.10;8.30;;;;;;;21.35;52.26;99191.49;107405;1253;60400;-38
2023/10/14 10:17:37;;;;;;;12.20;7.80;;;;;;;21.28;52.64;99187.73;107542;1253;60450;-38
2023/10/14 10:20:11;;;;;;;12.80;7.60;;;;;;;21.23;52.80;99183.30;107419;1253;72566;-38
2023/10/14 10:22:50;;;;;;;15.80;8.00;;;;;;;21.24;52.99;99179.55;107400;1253;67905;-38
2023/10/14 10:25:47;;;;;;;15.10;7.60;;;;;;;21.29;52.97;99170.78;107445;1255;71441;-38
2023/10/14 10:28:27;;;;;;;16.00;7.90;;;;;;;21.36;52.57;99167.26;107395;1253;60359;-38
2023/10/14 10:31:04;;;;;;;13.90;7.80;;;;;;;21.44;52.45;99163.88;107425;1253;60486;-38
2023/10/14 10:34:02;;;;;;;13.60;7.70;;;;;;;21.51;51.92;99154.63;107460;1253;73856;-38
2023/10/14 10:36:31;;;;;;;11.70;7.40;;;;;;;21.57;51.87;99153.19;107355;1253;67726;-38
2023/10/14 10:39:16;;;;;;;14.10;7.50;;;;;;;21.60;51.55;99146.09;107410;1258;72720;-38
2023/10/14 10:41:50;;;;;;;12.90;7.40;;;;;;;21.60;51.51;99142.45;107576;1253;60528;-38
2023/10/14 10:44:18;;;;;;;10.90;7.00;;;;;;;21.62;51.66;99140.44;107460;1258;60394;-37
2023/10/14 10:46:48;;;;;;;13.30;7.80;;;;;;;21.65;51.69;99130.88;107455;1253;73849;-38
2023/10/14 10:49:18;;;;;;;11.40;7.00;;;;;;;21.68;51.13;99134.19;107525;1252;66512;-38
2023/10/14 10:51:55;;;;;;;13.00;6.90;;;;;;;21.69;51.28;99123.81;107367;1253;72747;-37
2023/10/14 10:54:23;;;;;;;18.50;7.40;;;;;;;21.74;51.03;99131.02;107537;1253;60400;-38
2023/10/14 10:56:50;;;;;;;15.80;7.20;;;;;;;21.77;50.81;99125.41;107416;1253;59285;-37
2023/10/14 10:59:37;;;;;;;11.40;7.30;;;;;;;21.79;50.69;99127.61;107487;1253;73887;-38
2023/10/14 11:02:07;;;;;;;11.00;6.60;;;;;;;21.80;50.39;99123.58;107419;1253;67643;-38
2023/10/14 11:04:35;;;;;;;12.10;6.40;;;;;;;21.83;50.42;99122.45;107487;1258;71909;-38
2023/10/14 11:07:05;;;;;;;12.20;6.50;;;;;;;21.89;49.66;99124.64;107378;1253;60314;-38
2023/10/14 11:09:39;;;;;;;16.10;6.30;;;;;;;21.93;49.38;99115.52;107343;1253;60352;-38
2023/10/14 11:12:09;;;;;;;16.80;6.80;;;;;;;21.98;49.15;99110.25;107350;1253;73859;-38
2023/10/14 11:14:37;;;;;;;11.90;7.00;;;;;;;22.02;49.25;99111.86;107417;1258;66750;-38
2023/10/14 11:17:05;;;;;;;10.00;6.80;;;;;;;22.06;49.51;99108.60;107353;1253;72653;-37
2023/10/14 11:19:33;;;;;;;15.70;7.00;;;;;;;22.10;49.55;99105.31;107386;1254;60553;-37
2023/10/14 11:22:03;;;;;;;10.00;6.60;;;;;;;22.17;49.28;99107.09;107373;1253;60443;-38
2023/10/14 11:24:31;;;;;;;13.30;7.00;;;;;;;22.27;49.25;99101.86;107394;1253;74294;-38
2023/10/14 11:27:01;;;;;;;12.10;6.30;;;;;;;22.43;49.21;99091.98;107349;1258;67566;-38
2023/10/14 11:29:33;;;;;;;14.50;6.60;;;;;;;22.66;47.96;99089.26;107390;1253;72737;-38
2023/10/14 11:32:03;;;;;;;13.40;6.80;;;;;;;22.86;47.62;99083.19;107403;1253;60352;-38
2023/10/14 11:34:37;;;;;;;15.50;7.00;;;;;;;23.05;46.85;99080.00;107459;1253;60972;-38
2023/10/14 11:37:10;;;;;;;12.60;5.90;;;;;;;23.21;46.43;99077.84;107367;1253;72553;-38
2023/10/14 11:39:38;;;;;;;12.20;6.70;;;;;;;23.35;45.85;99080.44;107359;1253;67544;-38
2023/10/14 11:42:06;;;;;;;11.20;5.90;;;;;;;23.47;45.71;99067.16;107319;1253;72680;-38
2023/10/14 11:44:36;;;;;;;12.10;5.90;;;;;;;23.60;45.35;99062.38;107312;1254;60648;-38
2023/10/14 11:47:07;;;;;;;9.50;5.40;;;;;;;23.77;45.24;99062.91;107283;1253;60581;-38
2023/10/14 11:49:36;;;;;;;7.40;5.40;;;;;;;23.97;44.46;99060.91;107314;1253;73883;-38
2023/10/14 11:52:04;;;;;;;10.10;6.00;;;;;;;24.19;43.53;99057.91;107597;1253;66749;-38
2023/10/14 11:54:32;;;;;;;10.70;5.70;;;;;;;24.43;43.41;99051.86;107350;1254;72698;-38
2023/10/14 11:57:00;;;;;;;7.90;5.50;;;;;;;24.70;43.04;99052.02;107348;1253;60565;-37
2023/10/14 11:59:27;;;;;;;10.90;6.60;;;;;;;24.96;42.55;99046.56;107377;1253;60373;-38
2023/10/14 12:01:58;;;;;;;11.20;5.30;;;;;;;25.06;41.93;99046.80;107381;1253;71896;-38
2023/10/14 12:04:28;;;;;;;14.70;6.00;;;;;;;24.98;41.78;99047.72;107344;1258;67531;-38
2023/10/14 12:06:56;;;;;;;9.10;5.70;;;;;;;24.83;41.88;99049.52;107413;1254;72632;-38
2023/10/14 12:09:23;;;;;;;7.80;6.10;;;;;;;24.69;42.39;99043.41;107354;1258;60321;-38
2023/10/14 12:11:52;;;;;;;13.10;6.00;;;;;;;24.68;42.80;99032.38;107335;1253;60065;-38
2023/10/14 12:14:20;;;;;;;11.40;6.40;;;;;;;24.81;42.84;99034.89;107375;1253;73859;-38
2023/10/14 12:16:47;;;;;;;13.30;6.60;;;;;;;24.87;42.49;99029.27;107396;1253;67664;-36
2023/10/14 12:19:19;;;;;;;16.90;6.10;;;;;;;24.75;42.38;99023.75;107359;1253;72667;-37
2023/10/14 12:21:48;;;;;;;15.30;6.60;;;;;;;24.52;42.80;99018.89;107340;1256;60222;-37